sensor_id;sensor_type;location;lat;lon;timestamp;P1;durP1;ratioP1;P2;durP2;ratioP2
46717;SDS011;32448;44.960;-0.698;2022-09-01T00:00:55;10.60;;;6.28;;
46717;SDS011;32448;44.960;-0.698;2022-09-01T00:03:21;12.18;;;6.60;;
46717;SDS011;32448;44.960;-0.698;2022-09-01T00:05:50;13.50;;;7.20;;
46717;SDS011;32448;44.960;-0.698;2022-09-01T00:08:19;9.85;;;6.60;;
46717;SDS011;32448;44.960;-0.698;2022-09-01T00:10:46;11.50;;;6.68;;
46717;SDS011;32448;44.960;-0.698;2022-09-01T00:13:15;11.95;;;7.00;;
46717;SDS011;32448;44.960;-0.698;2022-09-01T00:15:41;14.32;;;6.78;;
46717;SDS011;32448;44.960;-0.698;2022-09-01T00:18:07;10.32;;;6.40;;
46717;SDS011;32448;44.960;-0.698;2022-09-01T00:20:34;12.10;;;6.60;;
46717;SDS011;32448;44.960;-0.698;2022-09-01T00:23:00;12.25;;;7.50;;
46717;SDS011;32448;44.960;-0.698;2022-09-01T00:25:27;8.68;;;6.50;;
46717;SDS011;32448;44.960;-0.698;2022-09-01T00:27:54;13.05;;;7.25;;
46717;SDS011;32448;44.960;-0.698;2022-09-01T00:30:24;11.50;;;7.07;;
46717;SDS011;32448;44.960;-0.698;2022-09-01T00:32:51;11.30;;;6.57;;
46717;SDS011;32448;44.960;-0.698;2022-09-01T00:35:17;14.55;;;6.65;;
46717;SDS011;32448;44.960;-0.698;2022-09-01T00:37:44;13.27;;;6.63;;
46717;SDS011;32448;44.960;-0.698;2022-09-01T00:40:11;13.48;;;7.03;;
46717;SDS011;32448;44.960;-0.698;2022-09-01T00:42:39;13.27;;;6.43;;
46717;SDS011;32448;44.960;-0.698;2022-09-01T00:45:06;11.70;;;6.07;;
46717;SDS011;32448;44.960;-0.698;2022-09-01T00:47:33;12.00;;;6.60;;
46717;SDS011;32448;44.960;-0.698;2022-09-01T00:50:00;9.13;;;6.18;;
46717;SDS011;32448;44.960;-0.698;2022-09-01T00:52:36;10.10;;;6.20;;
46717;SDS011;32448;44.960;-0.698;2022-09-01T00:55:10;12.63;;;5.85;;
46717;SDS011;32448;44.960;-0.698;2022-09-01T00:57:40;10.95;;;6.55;;
46717;SDS011;32448;44.960;-0.698;2022-09-01T01:00:10;11.57;;;6.70;;
46717;SDS011;32448;44.960;-0.698;2022-09-01T01:02:40;13.38;;;6.60;;
46717;SDS011;32448;44.960;-0.698;2022-09-01T01:05:07;15.25;;;6.22;;
46717;SDS011;32448;44.960;-0.698;2022-09-01T01:07:33;11.88;;;6.60;;
46717;SDS011;32448;44.960;-0.698;2022-09-01T01:10:08;11.98;;;7.03;;
46717;SDS011;32448;44.960;-0.698;2022-09-01T01:12:37;12.60;;;6.65;;
46717;SDS011;32448;44.960;-0.698;2022-09-01T01:15:06;13.07;;;6.65;;
46717;SDS011;32448;44.960;-0.698;2022-09-01T01:17:33;14.90;;;7.13;;
46717;SDS011;32448;44.960;-0.698;2022-09-01T01:19:59;11.43;;;6.43;;
46717;SDS011;32448;44.960;-0.698;2022-09-01T01:25:36;11.10;;;6.10;;
46717;SDS011;32448;44.960;-0.698;2022-09-01T01:28:21;10.50;;;6.38;;
46717;SDS011;32448;44.960;-0.698;2022-09-01T01:31:01;13.52;;;6.57;;
46717;SDS011;32448;44.960;-0.698;2022-09-01T01:33:40;12.15;;;7.15;;
46717;SDS011;32448;44.960;-0.698;2022-09-01T01:36:19;15.75;;;6.63;;
46717;SDS011;32448;44.960;-0.698;2022-09-01T01:38:50;14.35;;;6.88;;
46717;SDS011;32448;44.960;-0.698;2022-09-01T01:41:17;15.27;;;6.90;;
46717;SDS011;32448;44.960;-0.698;2022-09-01T01:43:44;8.43;;;6.15;;
46717;SDS011;32448;44.960;-0.698;2022-09-01T01:46:12;14.57;;;7.00;;
46717;SDS011;32448;44.960;-0.698;2022-09-01T01:48:40;8.85;;;6.28;;
46717;SDS011;32448;44.960;-0.698;2022-09-01T01:51:07;13.70;;;6.93;;
46717;SDS011;32448;44.960;-0.698;2022-09-01T01:53:36;10.02;;;5.95;;
46717;SDS011;32448;44.960;-0.698;2022-09-01T01:56:03;13.43;;;7.13;;
46717;SDS011;32448;44.960;-0.698;2022-09-01T01:58:30;10.60;;;6.43;;
46717;SDS011;32448;44.960;-0.698;2022-09-01T02:00:57;12.95;;;6.50;;
46717;SDS011;32448;44.960;-0.698;2022-09-01T02:03:25;12.82;;;6.38;;
46717;SDS011;32448;44.960;-0.698;2022-09-01T02:06:00;11.73;;;6.75;;
46717;SDS011;32448;44.960;-0.698;2022-09-01T02:08:29;13.73;;;6.75;;
46717;SDS011;32448;44.960;-0.698;2022-09-01T02:11:00;9.43;;;6.43;;
46717;SDS011;32448;44.960;-0.698;2022-09-01T02:13:29;10.00;;;6.82;;
46717;SDS011;32448;44.960;-0.698;2022-09-01T02:15:57;11.88;;;6.68;;
46717;SDS011;32448;44.960;-0.698;2022-09-01T02:18:32;13.85;;;6.53;;
46717;SDS011;32448;44.960;-0.698;2022-09-01T02:21:02;11.10;;;6.75;;
46717;SDS011;32448;44.960;-0.698;2022-09-01T02:23:38;12.80;;;7.07;;
46717;SDS011;32448;44.960;-0.698;2022-09-01T02:26:09;9.70;;;6.45;;
46717;SDS011;32448;44.960;-0.698;2022-09-01T02:28:45;9.93;;;6.53;;
46717;SDS011;32448;44.960;-0.698;2022-09-01T02:31:13;10.93;;;6.80;;
46717;SDS011;32448;44.960;-0.698;2022-09-01T02:33:40;10.93;;;6.90;;
46717;SDS011;32448;44.960;-0.698;2022-09-01T02:36:12;10.88;;;6.40;;
46717;SDS011;32448;44.960;-0.698;2022-09-01T02:38:40;10.48;;;6.75;;
46717;SDS011;32448;44.960;-0.698;2022-09-01T02:41:08;11.82;;;6.30;;
46717;SDS011;32448;44.960;-0.698;2022-09-01T02:43:36;14.93;;;6.78;;
46717;SDS011;32448;44.960;-0.698;2022-09-01T02:46:02;12.38;;;7.35;;
46717;SDS011;32448;44.960;-0.698;2022-09-01T02:48:37;13.65;;;7.55;;
46717;SDS011;32448;44.960;-0.698;2022-09-01T02:51:07;12.57;;;7.25;;
46717;SDS011;32448;44.960;-0.698;2022-09-01T02:53:36;11.77;;;6.55;;
46717;SDS011;32448;44.960;-0.698;2022-09-01T02:56:05;11.15;;;7.20;;
46717;SDS011;32448;44.960;-0.698;2022-09-01T02:58:38;8.85;;;6.55;;
46717;SDS011;32448;44.960;-0.698;2022-09-01T03:01:31;8.93;;;6.63;;
46717;SDS011;32448;44.960;-0.698;2022-09-01T03:04:01;10.70;;;6.72;;
46717;SDS011;32448;44.960;-0.698;2022-09-01T03:06:35;14.00;;;7.53;;
46717;SDS011;32448;44.960;-0.698;2022-09-01T03:09:06;10.77;;;6.90;;
46717;SDS011;32448;44.960;-0.698;2022-09-01T03:11:35;11.00;;;6.85;;
46717;SDS011;32448;44.960;-0.698;2022-09-01T03:14:03;10.32;;;6.80;;
46717;SDS011;32448;44.960;-0.698;2022-09-01T03:16:30;10.82;;;7.30;;
46717;SDS011;32448;44.960;-0.698;2022-09-01T03:18:57;11.15;;;7.15;;
46717;SDS011;32448;44.960;-0.698;2022-09-01T03:21:27;9.93;;;6.63;;
46717;SDS011;32448;44.960;-0.698;2022-09-01T03:23:56;14.20;;;6.82;;
46717;SDS011;32448;44.960;-0.698;2022-09-01T03:26:26;13.27;;;7.47;;
46717;SDS011;32448;44.960;-0.698;2022-09-01T03:28:55;10.98;;;7.10;;
46717;SDS011;32448;44.960;-0.698;2022-09-01T03:31:21;11.80;;;6.95;;
46717;SDS011;32448;44.960;-0.698;2022-09-01T03:33:51;12.85;;;7.40;;
46717;SDS011;32448;44.960;-0.698;2022-09-01T03:36:18;11.27;;;7.03;;
46717;SDS011;32448;44.960;-0.698;2022-09-01T03:38:45;13.52;;;7.00;;
46717;SDS011;32448;44.960;-0.698;2022-09-01T03:41:13;13.88;;;7.32;;
46717;SDS011;32448;44.960;-0.698;2022-09-01T03:43:41;12.93;;;7.32;;
46717;SDS011;32448;44.960;-0.698;2022-09-01T03:46:09;9.90;;;6.75;;
46717;SDS011;32448;44.960;-0.698;2022-09-01T03:48:40;12.02;;;7.13;;
46717;SDS011;32448;44.960;-0.698;2022-09-01T03:51:07;10.15;;;7.05;;
46717;SDS011;32448;44.960;-0.698;2022-09-01T03:53:36;11.85;;;8.13;;
46717;SDS011;32448;44.960;-0.698;2022-09-01T03:56:03;10.25;;;6.65;;
46717;SDS011;32448;44.960;-0.698;2022-09-01T03:58:30;13.70;;;6.97;;
46717;SDS011;32448;44.960;-0.698;2022-09-01T04:00:57;10.50;;;6.82;;
46717;SDS011;32448;44.960;-0.698;2022-09-01T04:03:27;10.27;;;6.80;;
46717;SDS011;32448;44.960;-0.698;2022-09-01T04:05:56;9.50;;;6.70;;
46717;SDS011;32448;44.960;-0.698;2022-09-01T04:08:23;10.88;;;7.07;;
46717;SDS011;32448;44.960;-0.698;2022-09-01T04:10:53;9.40;;;6.78;;
46717;SDS011;32448;44.960;-0.698;2022-09-01T04:15:47;10.10;;;6.43;;
46717;SDS011;32448;44.960;-0.698;2022-09-01T04:18:13;12.13;;;7.35;;
46717;SDS011;32448;44.960;-0.698;2022-09-01T04:20:47;11.73;;;7.18;;
46717;SDS011;32448;44.960;-0.698;2022-09-01T04:25:51;10.13;;;7.03;;
46717;SDS011;32448;44.960;-0.698;2022-09-01T04:28:23;10.70;;;7.45;;
46717;SDS011;32448;44.960;-0.698;2022-09-01T04:30:52;9.38;;;7.25;;
46717;SDS011;32448;44.960;-0.698;2022-09-01T04:33:23;9.70;;;7.50;;
46717;SDS011;32448;44.960;-0.698;2022-09-01T04:35:50;12.52;;;6.93;;
46717;SDS011;32448;44.960;-0.698;2022-09-01T04:38:21;11.07;;;7.45;;
46717;SDS011;32448;44.960;-0.698;2022-09-01T04:40:49;9.35;;;7.18;;
46717;SDS011;32448;44.960;-0.698;2022-09-01T04:43:16;10.93;;;7.00;;
46717;SDS011;32448;44.960;-0.698;2022-09-01T04:45:42;17.75;;;7.85;;
46717;SDS011;32448;44.960;-0.698;2022-09-01T04:48:10;10.98;;;6.90;;
46717;SDS011;32448;44.960;-0.698;2022-09-01T04:50:38;11.80;;;7.38;;
46717;SDS011;32448;44.960;-0.698;2022-09-01T04:53:05;11.80;;;6.90;;
46717;SDS011;32448;44.960;-0.698;2022-09-01T04:55:31;9.57;;;6.80;;
46717;SDS011;32448;44.960;-0.698;2022-09-01T04:57:58;10.30;;;7.20;;
46717;SDS011;32448;44.960;-0.698;2022-09-01T05:00:26;10.10;;;6.80;;
46717;SDS011;32448;44.960;-0.698;2022-09-01T05:02:57;13.10;;;7.78;;
46717;SDS011;32448;44.960;-0.698;2022-09-01T05:05:34;10.38;;;7.47;;
46717;SDS011;32448;44.960;-0.698;2022-09-01T05:08:04;12.18;;;7.55;;
46717;SDS011;32448;44.960;-0.698;2022-09-01T05:10:31;10.05;;;7.50;;
46717;SDS011;32448;44.960;-0.698;2022-09-01T05:13:00;9.02;;;7.30;;
46717;SDS011;32448;44.960;-0.698;2022-09-01T05:15:37;10.30;;;6.95;;
46717;SDS011;32448;44.960;-0.698;2022-09-01T05:18:19;11.70;;;7.32;;
46717;SDS011;32448;44.960;-0.698;2022-09-01T05:20:54;11.98;;;7.35;;
46717;SDS011;32448;44.960;-0.698;2022-09-01T05:23:21;10.93;;;7.65;;
46717;SDS011;32448;44.960;-0.698;2022-09-01T05:25:49;12.38;;;7.20;;
46717;SDS011;32448;44.960;-0.698;2022-09-01T05:28:19;10.80;;;7.65;;
46717;SDS011;32448;44.960;-0.698;2022-09-01T05:30:52;11.82;;;7.22;;
46717;SDS011;32448;44.960;-0.698;2022-09-01T05:33:18;15.45;;;7.93;;
46717;SDS011;32448;44.960;-0.698;2022-09-01T05:35:56;13.07;;;7.88;;
46717;SDS011;32448;44.960;-0.698;2022-09-01T05:38:26;11.77;;;8.02;;
46717;SDS011;32448;44.960;-0.698;2022-09-01T05:40:59;13.63;;;8.52;;
46717;SDS011;32448;44.960;-0.698;2022-09-01T05:45:56;12.45;;;7.97;;
46717;SDS011;32448;44.960;-0.698;2022-09-01T05:48:23;12.02;;;7.75;;
46717;SDS011;32448;44.960;-0.698;2022-09-01T05:50:49;10.82;;;8.50;;
46717;SDS011;32448;44.960;-0.698;2022-09-01T05:53:22;11.30;;;8.02;;
46717;SDS011;32448;44.960;-0.698;2022-09-01T05:55:49;10.50;;;7.38;;
46717;SDS011;32448;44.960;-0.698;2022-09-01T05:58:22;9.73;;;7.27;;
46717;SDS011;32448;44.960;-0.698;2022-09-01T06:00:51;9.32;;;7.03;;
46717;SDS011;32448;44.960;-0.698;2022-09-01T06:03:20;10.18;;;8.25;;
46717;SDS011;32448;44.960;-0.698;2022-09-01T06:05:46;12.52;;;8.43;;
46717;SDS011;32448;44.960;-0.698;2022-09-01T06:08:17;9.45;;;7.80;;
46717;SDS011;32448;44.960;-0.698;2022-09-01T06:10:44;11.45;;;7.80;;
46717;SDS011;32448;44.960;-0.698;2022-09-01T06:13:10;11.50;;;8.02;;
46717;SDS011;32448;44.960;-0.698;2022-09-01T06:15:40;10.63;;;8.10;;
46717;SDS011;32448;44.960;-0.698;2022-09-01T06:18:06;9.90;;;7.93;;
46717;SDS011;32448;44.960;-0.698;2022-09-01T06:20:38;11.75;;;7.90;;
46717;SDS011;32448;44.960;-0.698;2022-09-01T06:23:09;11.75;;;8.35;;
46717;SDS011;32448;44.960;-0.698;2022-09-01T06:25:43;12.60;;;8.02;;
46717;SDS011;32448;44.960;-0.698;2022-09-01T06:28:14;13.05;;;8.65;;
46717;SDS011;32448;44.960;-0.698;2022-09-01T06:30:42;11.80;;;8.35;;
46717;SDS011;32448;44.960;-0.698;2022-09-01T06:33:10;12.82;;;8.45;;
46717;SDS011;32448;44.960;-0.698;2022-09-01T06:35:40;13.30;;;7.90;;
46717;SDS011;32448;44.960;-0.698;2022-09-01T06:38:07;11.75;;;8.35;;
46717;SDS011;32448;44.960;-0.698;2022-09-01T06:40:34;12.00;;;8.52;;
46717;SDS011;32448;44.960;-0.698;2022-09-01T06:43:03;14.73;;;9.15;;
46717;SDS011;32448;44.960;-0.698;2022-09-01T06:45:33;13.95;;;9.07;;
46717;SDS011;32448;44.960;-0.698;2022-09-01T06:48:06;17.15;;;8.85;;
46717;SDS011;32448;44.960;-0.698;2022-09-01T06:50:33;13.90;;;8.30;;
46717;SDS011;32448;44.960;-0.698;2022-09-01T06:52:59;14.20;;;8.25;;
46717;SDS011;32448;44.960;-0.698;2022-09-01T06:55:37;13.13;;;7.75;;
46717;SDS011;32448;44.960;-0.698;2022-09-01T06:58:04;19.02;;;8.18;;
46717;SDS011;32448;44.960;-0.698;2022-09-01T07:00:32;14.73;;;7.68;;
46717;SDS011;32448;44.960;-0.698;2022-09-01T07:02:59;12.50;;;7.78;;
46717;SDS011;32448;44.960;-0.698;2022-09-01T07:05:27;17.63;;;7.75;;
46717;SDS011;32448;44.960;-0.698;2022-09-01T07:07:53;15.27;;;7.20;;
46717;SDS011;32448;44.960;-0.698;2022-09-01T07:10:26;11.85;;;6.90;;
46717;SDS011;32448;44.960;-0.698;2022-09-01T07:12:52;12.75;;;7.18;;
46717;SDS011;32448;44.960;-0.698;2022-09-01T07:15:20;10.88;;;6.97;;
46717;SDS011;32448;44.960;-0.698;2022-09-01T07:17:54;11.60;;;7.18;;
46717;SDS011;32448;44.960;-0.698;2022-09-01T07:20:22;16.90;;;7.10;;
46717;SDS011;32448;44.960;-0.698;2022-09-01T07:22:50;13.57;;;7.22;;
46717;SDS011;32448;44.960;-0.698;2022-09-01T07:25:17;14.35;;;6.72;;
46717;SDS011;32448;44.960;-0.698;2022-09-01T07:27:44;9.45;;;6.13;;
46717;SDS011;32448;44.960;-0.698;2022-09-01T07:30:18;12.52;;;6.38;;
46717;SDS011;32448;44.960;-0.698;2022-09-01T07:32:45;11.05;;;6.50;;
46717;SDS011;32448;44.960;-0.698;2022-09-01T07:35:12;9.65;;;6.60;;
46717;SDS011;32448;44.960;-0.698;2022-09-01T07:37:39;9.52;;;6.80;;
46717;SDS011;32448;44.960;-0.698;2022-09-01T07:40:06;15.27;;;7.35;;
46717;SDS011;32448;44.960;-0.698;2022-09-01T07:42:34;9.75;;;5.82;;
46717;SDS011;32448;44.960;-0.698;2022-09-01T07:45:01;12.48;;;6.18;;
46717;SDS011;32448;44.960;-0.698;2022-09-01T07:47:31;10.93;;;5.70;;
46717;SDS011;32448;44.960;-0.698;2022-09-01T07:50:01;12.38;;;5.90;;
46717;SDS011;32448;44.960;-0.698;2022-09-01T07:52:32;9.70;;;6.03;;
46717;SDS011;32448;44.960;-0.698;2022-09-01T07:55:07;11.77;;;6.35;;
46717;SDS011;32448;44.960;-0.698;2022-09-01T07:57:37;10.50;;;5.80;;
46717;SDS011;32448;44.960;-0.698;2022-09-01T08:00:05;9.77;;;5.50;;
46717;SDS011;32448;44.960;-0.698;2022-09-01T08:02:31;7.78;;;5.30;;
46717;SDS011;32448;44.960;-0.698;2022-09-01T08:04:57;14.85;;;6.07;;
46717;SDS011;32448;44.960;-0.698;2022-09-01T08:07:24;7.93;;;4.95;;
46717;SDS011;32448;44.960;-0.698;2022-09-01T08:09:50;8.07;;;5.47;;
46717;SDS011;32448;44.960;-0.698;2022-09-01T08:12:16;13.60;;;5.40;;
46717;SDS011;32448;44.960;-0.698;2022-09-01T08:14:42;12.50;;;5.07;;
46717;SDS011;32448;44.960;-0.698;2022-09-01T08:17:07;8.73;;;5.03;;
46717;SDS011;32448;44.960;-0.698;2022-09-01T08:19:33;9.18;;;4.95;;
46717;SDS011;32448;44.960;-0.698;2022-09-01T08:22:00;8.35;;;4.80;;
46717;SDS011;32448;44.960;-0.698;2022-09-01T08:24:25;13.63;;;5.97;;
46717;SDS011;32448;44.960;-0.698;2022-09-01T08:26:51;6.55;;;5.00;;
46717;SDS011;32448;44.960;-0.698;2022-09-01T08:29:17;6.95;;;4.80;;
46717;SDS011;32448;44.960;-0.698;2022-09-01T08:31:42;9.20;;;5.30;;
46717;SDS011;32448;44.960;-0.698;2022-09-01T08:34:11;12.07;;;5.32;;
46717;SDS011;32448;44.960;-0.698;2022-09-01T08:36:37;9.40;;;4.80;;
46717;SDS011;32448;44.960;-0.698;2022-09-01T08:39:03;13.18;;;5.05;;
46717;SDS011;32448;44.960;-0.698;2022-09-01T08:41:31;9.15;;;4.57;;
46717;SDS011;32448;44.960;-0.698;2022-09-01T08:44:06;7.85;;;4.70;;
46717;SDS011;32448;44.960;-0.698;2022-09-01T08:46:40;9.30;;;4.95;;
46717;SDS011;32448;44.960;-0.698;2022-09-01T08:49:17;9.52;;;4.82;;
46717;SDS011;32448;44.960;-0.698;2022-09-01T08:52:01;11.95;;;5.20;;
46717;SDS011;32448;44.960;-0.698;2022-09-01T08:54:43;7.95;;;4.72;;
46717;SDS011;32448;44.960;-0.698;2022-09-01T08:57:19;11.93;;;5.55;;
46717;SDS011;32448;44.960;-0.698;2022-09-01T08:59:48;10.80;;;4.85;;
46717;SDS011;32448;44.960;-0.698;2022-09-01T09:08:05;7.72;;;4.57;;
46717;SDS011;32448;44.960;-0.698;2022-09-01T09:16:31;6.50;;;4.50;;
46717;SDS011;32448;44.960;-0.698;2022-09-01T09:19:03;6.93;;;4.10;;
46717;SDS011;32448;44.960;-0.698;2022-09-01T09:21:36;7.53;;;4.40;;
46717;SDS011;32448;44.960;-0.698;2022-09-01T09:26:37;10.32;;;4.13;;
46717;SDS011;32448;44.960;-0.698;2022-09-01T09:29:03;8.52;;;4.65;;
46717;SDS011;32448;44.960;-0.698;2022-09-01T09:31:33;7.18;;;4.18;;
46717;SDS011;32448;44.960;-0.698;2022-09-01T09:34:41;9.30;;;4.18;;
46717;SDS011;32448;44.960;-0.698;2022-09-01T09:37:15;8.95;;;4.25;;
46717;SDS011;32448;44.960;-0.698;2022-09-01T09:40:02;6.55;;;4.07;;
46717;SDS011;32448;44.960;-0.698;2022-09-01T09:42:30;8.45;;;4.05;;
46717;SDS011;32448;44.960;-0.698;2022-09-01T09:44:56;10.13;;;4.47;;
46717;SDS011;32448;44.960;-0.698;2022-09-01T09:47:42;8.98;;;4.40;;
46717;SDS011;32448;44.960;-0.698;2022-09-01T09:50:16;6.47;;;3.83;;
46717;SDS011;32448;44.960;-0.698;2022-09-01T09:52:51;11.05;;;4.78;;
46717;SDS011;32448;44.960;-0.698;2022-09-01T09:55:28;7.35;;;4.25;;
46717;SDS011;32448;44.960;-0.698;2022-09-01T09:57:58;12.18;;;4.32;;
46717;SDS011;32448;44.960;-0.698;2022-09-01T10:00:27;7.43;;;4.35;;
46717;SDS011;32448;44.960;-0.698;2022-09-01T10:03:00;5.15;;;4.50;;
46717;SDS011;32448;44.960;-0.698;2022-09-01T10:08:06;9.38;;;4.57;;
46717;SDS011;32448;44.960;-0.698;2022-09-01T10:10:41;9.57;;;4.63;;
46717;SDS011;32448;44.960;-0.698;2022-09-01T10:13:16;6.28;;;4.38;;
46717;SDS011;32448;44.960;-0.698;2022-09-01T10:15:56;7.18;;;4.80;;
46717;SDS011;32448;44.960;-0.698;2022-09-01T10:18:28;8.75;;;4.25;;
46717;SDS011;32448;44.960;-0.698;2022-09-01T10:20:58;7.80;;;4.80;;
46717;SDS011;32448;44.960;-0.698;2022-09-01T10:23:25;7.95;;;4.80;;
46717;SDS011;32448;44.960;-0.698;2022-09-01T10:25:56;7.38;;;4.22;;
46717;SDS011;32448;44.960;-0.698;2022-09-01T10:28:27;7.32;;;4.10;;
46717;SDS011;32448;44.960;-0.698;2022-09-01T10:30:56;7.75;;;4.30;;
46717;SDS011;32448;44.960;-0.698;2022-09-01T10:33:23;7.13;;;4.18;;
46717;SDS011;32448;44.960;-0.698;2022-09-01T10:35:50;8.55;;;4.10;;
46717;SDS011;32448;44.960;-0.698;2022-09-01T10:38:24;9.35;;;4.63;;
46717;SDS011;32448;44.960;-0.698;2022-09-01T10:40:54;7.32;;;4.32;;
46717;SDS011;32448;44.960;-0.698;2022-09-01T10:43:34;8.98;;;3.85;;
46717;SDS011;32448;44.960;-0.698;2022-09-01T10:48:35;6.72;;;3.85;;
46717;SDS011;32448;44.960;-0.698;2022-09-01T10:53:49;7.70;;;4.22;;
46717;SDS011;32448;44.960;-0.698;2022-09-01T11:09:15;6.78;;;3.92;;
46717;SDS011;32448;44.960;-0.698;2022-09-01T11:14:29;6.55;;;3.90;;
46717;SDS011;32448;44.960;-0.698;2022-09-01T11:28:06;6.63;;;3.45;;
46717;SDS011;32448;44.960;-0.698;2022-09-01T11:30:55;5.50;;;3.67;;
46717;SDS011;32448;44.960;-0.698;2022-09-01T11:33:35;6.72;;;3.80;;
46717;SDS011;32448;44.960;-0.698;2022-09-01T11:36:13;3.65;;;3.10;;
46717;SDS011;32448;44.960;-0.698;2022-09-01T11:44:50;4.53;;;3.30;;
46717;SDS011;32448;44.960;-0.698;2022-09-01T11:47:21;6.75;;;3.58;;
46717;SDS011;32448;44.960;-0.698;2022-09-01T11:49:52;5.60;;;3.40;;
46717;SDS011;32448;44.960;-0.698;2022-09-01T11:52:22;5.05;;;3.17;;
46717;SDS011;32448;44.960;-0.698;2022-09-01T11:54:51;6.50;;;3.35;;
46717;SDS011;32448;44.960;-0.698;2022-09-01T11:59:48;3.92;;;2.92;;
46717;SDS011;32448;44.960;-0.698;2022-09-01T12:02:19;7.88;;;3.33;;
46717;SDS011;32448;44.960;-0.698;2022-09-01T12:04:53;5.80;;;3.30;;
46717;SDS011;32448;44.960;-0.698;2022-09-01T12:07:28;5.15;;;3.20;;
46717;SDS011;32448;44.960;-0.698;2022-09-01T12:10:00;5.60;;;3.50;;
46717;SDS011;32448;44.960;-0.698;2022-09-01T12:12:30;6.75;;;4.40;;
46717;SDS011;32448;44.960;-0.698;2022-09-01T12:14:57;5.28;;;3.30;;
46717;SDS011;32448;44.960;-0.698;2022-09-01T12:17:24;7.38;;;3.72;;
46717;SDS011;32448;44.960;-0.698;2022-09-01T12:19:50;4.45;;;3.20;;
46717;SDS011;32448;44.960;-0.698;2022-09-01T12:22:16;4.55;;;3.33;;
46717;SDS011;32448;44.960;-0.698;2022-09-01T12:24:45;9.02;;;3.95;;
46717;SDS011;32448;44.960;-0.698;2022-09-01T12:27:13;6.22;;;3.42;;
46717;SDS011;32448;44.960;-0.698;2022-09-01T12:29:39;4.35;;;3.30;;
46717;SDS011;32448;44.960;-0.698;2022-09-01T12:32:05;5.05;;;3.38;;
46717;SDS011;32448;44.960;-0.698;2022-09-01T12:37:04;5.97;;;3.50;;
46717;SDS011;32448;44.960;-0.698;2022-09-01T12:39:41;6.80;;;3.25;;
46717;SDS011;32448;44.960;-0.698;2022-09-01T12:44:47;5.15;;;3.30;;
46717;SDS011;32448;44.960;-0.698;2022-09-01T12:50:03;5.75;;;3.55;;
46717;SDS011;32448;44.960;-0.698;2022-09-01T12:52:36;11.48;;;3.65;;
46717;SDS011;32448;44.960;-0.698;2022-09-01T12:55:14;6.40;;;3.58;;
46717;SDS011;32448;44.960;-0.698;2022-09-01T12:57:45;4.25;;;3.20;;
46717;SDS011;32448;44.960;-0.698;2022-09-01T13:00:19;9.60;;;3.67;;
46717;SDS011;32448;44.960;-0.698;2022-09-01T13:05:46;6.22;;;3.03;;
46717;SDS011;32448;44.960;-0.698;2022-09-01T13:08:16;6.25;;;3.58;;
46717;SDS011;32448;44.960;-0.698;2022-09-01T13:13:15;5.78;;;3.65;;
46717;SDS011;32448;44.960;-0.698;2022-09-01T13:15:45;5.78;;;3.30;;
46717;SDS011;32448;44.960;-0.698;2022-09-01T13:18:14;5.07;;;3.35;;
46717;SDS011;32448;44.960;-0.698;2022-09-01T13:20:45;5.00;;;3.20;;
46717;SDS011;32448;44.960;-0.698;2022-09-01T13:23:11;7.15;;;3.03;;
46717;SDS011;32448;44.960;-0.698;2022-09-01T13:25:37;6.15;;;3.50;;
46717;SDS011;32448;44.960;-0.698;2022-09-01T13:28:04;4.63;;;3.33;;
46717;SDS011;32448;44.960;-0.698;2022-09-01T13:30:32;3.58;;;3.00;;
46717;SDS011;32448;44.960;-0.698;2022-09-01T13:32:58;5.20;;;3.10;;
46717;SDS011;32448;44.960;-0.698;2022-09-01T13:35:24;7.50;;;3.53;;
46717;SDS011;32448;44.960;-0.698;2022-09-01T13:37:50;6.00;;;3.72;;
46717;SDS011;32448;44.960;-0.698;2022-09-01T13:40:16;7.82;;;3.60;;
46717;SDS011;32448;44.960;-0.698;2022-09-01T13:42:47;5.78;;;2.92;;
46717;SDS011;32448;44.960;-0.698;2022-09-01T13:45:15;6.28;;;3.40;;
46717;SDS011;32448;44.960;-0.698;2022-09-01T13:47:44;8.27;;;3.40;;
46717;SDS011;32448;44.960;-0.698;2022-09-01T13:50:12;4.70;;;3.58;;
46717;SDS011;32448;44.960;-0.698;2022-09-01T13:52:40;4.00;;;3.17;;
46717;SDS011;32448;44.960;-0.698;2022-09-01T13:55:09;7.25;;;3.45;;
46717;SDS011;32448;44.960;-0.698;2022-09-01T13:57:36;4.72;;;2.92;;
46717;SDS011;32448;44.960;-0.698;2022-09-01T14:00:06;5.97;;;3.08;;
46717;SDS011;32448;44.960;-0.698;2022-09-01T14:02:35;6.05;;;3.40;;
46717;SDS011;32448;44.960;-0.698;2022-09-01T14:05:01;7.43;;;3.10;;
46717;SDS011;32448;44.960;-0.698;2022-09-01T14:07:27;10.43;;;3.22;;
46717;SDS011;32448;44.960;-0.698;2022-09-01T14:09:54;6.13;;;3.08;;
46717;SDS011;32448;44.960;-0.698;2022-09-01T14:12:20;6.18;;;3.22;;
46717;SDS011;32448;44.960;-0.698;2022-09-01T14:14:46;5.80;;;3.60;;
46717;SDS011;32448;44.960;-0.698;2022-09-01T14:17:12;9.27;;;3.10;;
46717;SDS011;32448;44.960;-0.698;2022-09-01T14:19:37;3.40;;;2.58;;
46717;SDS011;32448;44.960;-0.698;2022-09-01T14:22:03;4.55;;;2.90;;
46717;SDS011;32448;44.960;-0.698;2022-09-01T14:24:30;7.63;;;3.00;;
46717;SDS011;32448;44.960;-0.698;2022-09-01T14:26:59;5.00;;;2.90;;
46717;SDS011;32448;44.960;-0.698;2022-09-01T14:29:25;5.75;;;3.08;;
46717;SDS011;32448;44.960;-0.698;2022-09-01T14:31:51;5.63;;;3.10;;
46717;SDS011;32448;44.960;-0.698;2022-09-01T14:34:21;4.90;;;2.60;;
46717;SDS011;32448;44.960;-0.698;2022-09-01T14:36:50;5.43;;;2.33;;
46717;SDS011;32448;44.960;-0.698;2022-09-01T14:39:21;6.03;;;2.80;;
46717;SDS011;32448;44.960;-0.698;2022-09-01T14:41:46;6.00;;;3.30;;
46717;SDS011;32448;44.960;-0.698;2022-09-01T14:44:12;4.93;;;2.50;;
46717;SDS011;32448;44.960;-0.698;2022-09-01T14:46:37;5.78;;;2.88;;
46717;SDS011;32448;44.960;-0.698;2022-09-01T14:49:04;4.00;;;2.60;;
46717;SDS011;32448;44.960;-0.698;2022-09-01T14:51:31;4.57;;;2.90;;
46717;SDS011;32448;44.960;-0.698;2022-09-01T14:53:57;5.32;;;3.15;;
46717;SDS011;32448;44.960;-0.698;2022-09-01T14:56:23;5.50;;;2.65;;
46717;SDS011;32448;44.960;-0.698;2022-09-01T14:58:49;3.20;;;2.75;;
46717;SDS011;32448;44.960;-0.698;2022-09-01T15:01:17;4.60;;;2.50;;
46717;SDS011;32448;44.960;-0.698;2022-09-01T15:03:49;7.00;;;3.00;;
46717;SDS011;32448;44.960;-0.698;2022-09-01T15:06:16;6.25;;;2.97;;
46717;SDS011;32448;44.960;-0.698;2022-09-01T15:08:43;3.65;;;2.72;;
46717;SDS011;32448;44.960;-0.698;2022-09-01T15:11:09;3.85;;;2.72;;
46717;SDS011;32448;44.960;-0.698;2022-09-01T15:13:37;4.57;;;2.65;;
46717;SDS011;32448;44.960;-0.698;2022-09-01T15:16:04;2.90;;;2.60;;
46717;SDS011;32448;44.960;-0.698;2022-09-01T15:21:03;4.78;;;2.67;;
46717;SDS011;32448;44.960;-0.698;2022-09-01T15:23:29;5.45;;;2.80;;
46717;SDS011;32448;44.960;-0.698;2022-09-01T15:25:55;4.45;;;2.25;;
46717;SDS011;32448;44.960;-0.698;2022-09-01T15:28:22;4.22;;;2.60;;
46717;SDS011;32448;44.960;-0.698;2022-09-01T15:30:48;3.55;;;2.72;;
46717;SDS011;32448;44.960;-0.698;2022-09-01T15:33:15;5.97;;;2.72;;
46717;SDS011;32448;44.960;-0.698;2022-09-01T15:35:41;5.55;;;2.60;;
46717;SDS011;32448;44.960;-0.698;2022-09-01T15:38:08;3.72;;;2.50;;
46717;SDS011;32448;44.960;-0.698;2022-09-01T15:40:37;3.42;;;2.63;;
46717;SDS011;32448;44.960;-0.698;2022-09-01T15:43:04;6.18;;;2.55;;
46717;SDS011;32448;44.960;-0.698;2022-09-01T15:45:30;4.30;;;2.72;;
46717;SDS011;32448;44.960;-0.698;2022-09-01T15:47:55;4.47;;;2.33;;
46717;SDS011;32448;44.960;-0.698;2022-09-01T15:50:22;5.90;;;2.50;;
46717;SDS011;32448;44.960;-0.698;2022-09-01T15:52:51;3.53;;;2.88;;
46717;SDS011;32448;44.960;-0.698;2022-09-01T15:55:18;6.43;;;2.80;;
46717;SDS011;32448;44.960;-0.698;2022-09-01T16:00:19;3.88;;;2.42;;
46717;SDS011;32448;44.960;-0.698;2022-09-01T16:02:47;5.38;;;2.58;;
46717;SDS011;32448;44.960;-0.698;2022-09-01T16:05:13;4.78;;;2.80;;
46717;SDS011;32448;44.960;-0.698;2022-09-01T16:07:42;4.65;;;2.40;;